Aérodrome :
LOGIN :

S'inscrire | Disclaimer

   EN    FR    IT 

 










Légende :    VFR   VFR Marginal   IFR   IFR Intensif   IFR Très Intensif
Visi : 
Plafond : 
>= 8 km
>= 3000ft
5 à 8 km
1000 à 3000 ft
1500m à 5 km
500 à 1000 ft
800 à 1500m
200 à 500 ft
< 800m
< 200 ft
Symboles :   Orages  Brouillard  Fortes neiges  Fortes précipitations  Vent > 20 kt
SIGMETs :   Divers  Orages  Givrage  Turbulence  Onde Orograph.  Cendres Volcan.







- Altitude de l'aérodrome : 1325 ft
- Code IATA : EBU
- Voir les cartes d'approche


LFMH - St-Etienne Boutheon

DERNIER METAR :
  • 211500Z AUTO 31008KT 260V010 9999 FEW030/// SCT035/// ///CB 23/16 Q1015 TEMPO 4000 -TSRA

METARs EXPIRÉS :
  • 211430Z AUTO 32009KT 280V350 9999 FEW029 SCT035 BKN056 23/15 Q1015 TEMPO 4000 -TSRA SCT017 BKN022CB
  • 211400Z AUTO 32008KT 270V350 9999 BKN028/// BKN043/// ///CB 23/15 Q1015 TEMPO 4000 -TSRA
  • 211330Z AUTO 31007KT 270V020 9999 FEW028/// BKN064/// ///CB 23/15 Q1015 TEMPO 4000 -TSRA
  • 211300Z AUTO 31008KT 270V340 9999 FEW025/// SCT043/// BKN050/// ///CB 22/15 Q1015 TEMPO 4000 -TSRA
  • 211230Z AUTO 32009KT 290V020 9999 FEW030/// SCT044/// OVC050/// ///TCU 21/15 Q1015 TEMPO 4000 -TSRA SCT017 BKN022CB

TAF TAF LFMH
Valide du 21 à 15h jusqu'au 22 à 15h UTC


211400Z 2115/2215 33007KT 9999 FEW027TCU BKN055
TEMPO 2115/2117 5000 SHRA BKN024TCU
PROB30
TEMPO 2115/2117 VRB10G20KT 4000 -TSRA SCT017 BKN022CB
BECMG 2117/2120 VRB03KT SCT048
BECMG 2207/2209 34008KT SCT040
BECMG 2212/2215 36007G17KT SCT055
ATIS : +33 4 77 36 17 51
Pas de NOTAMs connus pour ce terrain.



MET'MAP, la Météo Aéronautique d'un coup d'oeil ! - Copyright ORBIFLY Décembre 2007 - Disclaimer

ORBIFLY MET'MAP TEAM :

Programmation & Développement : Alexandra Zaïnal
Conception & Développement : Baudouin d'Aumeries
Co-Programmation & Développement : Marc-Olivier Méhu
Soutien technique & logistique : Manuel Goepfert

Contact : metmap@orbifly.com




SOURCES & CREDITS :

   NOAA